Time;durP1;ratioP1;P1;durP2;ratioP2;P2;SDS_P1;SDS_P2;PMS_P1;PMS_P2;Temp;Humidity;BMP_temperature;BMP_pressure;BME280_temperature;BME280_humidity;BME280_pressure;Samples;Min_cycle;Max_cycle;Signal;HPM_P1;HPM_P2
2021/07/01 00:02:26;;;;;;;24.03;22.27;;;;;;;;;;4976935;28;20780;-91
2021/07/01 00:04:54;;;;;;;22.60;21.20;;;;;;;;;;4956309;29;20504;-90
2021/07/01 00:07:21;;;;;;;23.10;21.40;;;;;;;;;;4957743;29;20545;-91
2021/07/01 00:09:50;;;;;;;24.40;22.30;;;;;;;;;;4957618;29;20444;-91
2021/07/01 00:12:17;;;;;;;24.07;22.10;;;;;;;;;;4957477;28;20439;-91
2021/07/01 00:14:45;;;;;;;25.87;23.83;;;;;;;;;;4957153;29;20438;-90
2021/07/01 00:17:12;;;;;;;25.23;23.33;;;;;;;;;;4956337;29;20426;-91
2021/07/01 00:19:40;;;;;;;26.03;24.03;;;;;;;;;;4956989;29;20413;-91
2021/07/01 00:22:07;;;;;;;25.30;23.43;;;;;;;;;;4957232;29;20407;-89
2021/07/01 00:24:34;;;;;;;23.80;21.90;;;;;;;;;;4956862;29;20493;-90
2021/07/01 00:27:03;;;;;;;23.90;22.07;;;;;;;;;;4957180;29;20431;-90
2021/07/01 00:29:31;;;;;;;24.67;22.67;;;;;;;;;;4956982;29;20889;-91
2021/07/01 00:31:58;;;;;;;24.37;22.47;;;;;;;;;;4957606;29;20793;-91
2021/07/01 00:34:26;;;;;;;25.17;23.27;;;;;;;;;;4956201;29;20430;-91
2021/07/01 00:36:53;;;;;;;24.33;22.43;;;;;;;;;;4956957;28;20409;-91
2021/07/01 00:39:21;;;;;;;24.67;22.87;;;;;;;;;;4957021;28;20413;-90
2021/07/01 00:41:48;;;;;;;25.97;23.67;;;;;;;;;;4956998;28;20422;-90
2021/07/01 00:44:17;;;;;;;25.17;23.27;;;;;;;;;;4956675;29;20477;-90
2021/07/01 00:46:44;;;;;;;24.73;22.80;;;;;;;;;;4956554;28;20827;-90
2021/07/01 00:49:12;;;;;;;23.90;22.07;;;;;;;;;;4956526;29;20463;-91
2021/07/01 00:51:39;;;;;;;25.27;23.20;;;;;;;;;;4956865;28;20444;-91
2021/07/01 00:54:06;;;;;;;25.03;23.27;;;;;;;;;;4956573;29;20440;-91
2021/07/01 00:56:37;;;;;;;26.10;24.03;;;;;;;;;;4956586;29;20447;-91
2021/07/01 00:59:06;;;;;;;25.77;23.77;;;;;;;;;;4955720;28;20422;-91
2021/07/01 01:01:36;;;;;;;26.33;24.27;;;;;;;;;;4956233;29;20425;-91
2021/07/01 01:04:04;;;;;;;24.57;22.60;;;;;;;;;;4962650;28;20464;-90
2021/07/01 01:06:31;;;;;;;25.93;23.77;;;;;;;;;;4975610;28;20438;-91
2021/07/01 01:08:59;;;;;;;25.90;24.20;;;;;;;;;;4975544;28;20449;-91
2021/07/01 01:11:27;;;;;;;25.87;23.77;;;;;;;;;;4975390;28;20435;-91
2021/07/01 01:13:55;;;;;;;26.60;24.33;;;;;;;;;;4975424;28;20444;-91
2021/07/01 01:16:22;;;;;;;25.53;23.63;;;;;;;;;;4975537;28;20481;-89
2021/07/01 01:18:51;;;;;;;27.03;24.70;;;;;;;;;;4975874;28;20461;-91
2021/07/01 01:21:24;;;;;;;25.00;23.20;;;;;;;;;;4975399;28;20440;-91
2021/07/01 01:23:53;;;;;;;27.10;24.70;;;;;;;;;;4958679;28;20966;-91
2021/07/01 01:26:20;;;;;;;27.00;24.70;;;;;;;;;;4975636;28;20440;-91
2021/07/01 01:28:48;;;;;;;25.97;23.60;;;;;;;;;;4975215;28;20462;-90
2021/07/01 01:31:15;;;;;;;26.47;24.07;;;;;;;;;;4975645;28;20413;-91
2021/07/01 01:33:43;;;;;;;26.07;24.13;;;;;;;;;;4975577;28;20448;-91
2021/07/01 01:36:10;;;;;;;25.77;23.13;;;;;;;;;;4958700;28;20429;-91
2021/07/01 01:38:38;;;;;;;25.90;23.70;;;;;;;;;;4975591;28;20442;-91
2021/07/01 01:41:07;;;;;;;27.97;25.90;;;;;;;;;;4975241;28;20432;-91
2021/07/01 01:43:34;;;;;;;26.97;24.70;;;;;;;;;;4958265;28;20444;-90
2021/07/01 01:46:02;;;;;;;27.37;25.37;;;;;;;;;;4975167;28;20489;-91
2021/07/01 01:48:29;;;;;;;27.67;25.50;;;;;;;;;;4975636;28;20783;-91
2021/07/01 01:50:56;;;;;;;27.67;25.30;;;;;;;;;;4974949;28;20422;-91
2021/07/01 01:53:24;;;;;;;26.93;24.73;;;;;;;;;;4975322;28;20443;-91
2021/07/01 01:55:52;;;;;;;25.83;23.83;;;;;;;;;;4975174;28;20419;-91
2021/07/01 01:58:21;;;;;;;27.63;24.90;;;;;;;;;;4958605;28;20474;-90
2021/07/01 02:00:48;;;;;;;29.30;26.70;;;;;;;;;;4974993;28;20879;-91
2021/07/01 02:03:16;;;;;;;26.30;24.17;;;;;;;;;;4975192;28;20491;-91
2021/07/01 02:05:43;;;;;;;28.20;25.90;;;;;;;;;;4958194;28;20924;-91
2021/07/01 02:08:11;;;;;;;28.37;26.13;;;;;;;;;;4975270;28;20431;-91
2021/07/01 02:10:38;;;;;;;26.70;24.27;;;;;;;;;;4974925;28;20458;-91
2021/07/01 02:13:10;;;;;;;28.80;26.47;;;;;;;;;;4979315;28;20908;-91
2021/07/01 02:15:39;;;;;;;27.40;25.20;;;;;;;;;;4962217;28;20523;-91
2021/07/01 02:18:06;;;;;;;27.87;25.67;;;;;;;;;;4979193;28;20457;-91
2021/07/01 02:20:34;;;;;;;27.30;25.20;;;;;;;;;;4978321;28;20417;-91
2021/07/01 02:23:02;;;;;;;29.00;26.60;;;;;;;;;;4978489;28;20418;-91
2021/07/01 02:25:29;;;;;;;27.37;24.80;;;;;;;;;;4978472;28;20418;-91
2021/07/01 02:27:57;;;;;;;27.13;24.77;;;;;;;;;;4978697;28;20499;-91
2021/07/01 02:30:24;;;;;;;29.93;26.90;;;;;;;;;;4978423;28;20432;-91
2021/07/01 02:32:53;;;;;;;28.57;26.03;;;;;;;;;;4978350;28;20446;-91
2021/07/01 02:35:20;;;;;;;29.73;26.70;;;;;;;;;;4978529;28;20432;-91
2021/07/01 02:37:48;;;;;;;31.33;28.13;;;;;;;;;;4978240;28;20431;-91
2021/07/01 02:40:15;;;;;;;29.37;27.07;;;;;;;;;;4961054;28;20503;-91
2021/07/01 02:42:43;;;;;;;29.67;27.30;;;;;;;;;;4961182;28;20939;-91
2021/07/01 02:45:12;;;;;;;27.87;25.40;;;;;;;;;;4977955;28;20493;-90
2021/07/01 02:47:39;;;;;;;37.33;27.80;;;;;;;;;;4978369;28;20444;-91
2021/07/01 02:50:10;;;;;;;27.70;25.40;;;;;;;;;;4978297;28;20884;-90
2021/07/01 02:52:37;;;;;;;27.77;25.30;;;;;;;;;;4978231;28;20417;-90
2021/07/01 02:55:06;;;;;;;29.33;26.80;;;;;;;;;;4977975;28;20420;-91
2021/07/01 02:57:33;;;;;;;29.93;27.67;;;;;;;;;;4977902;28;20632;-91
2021/07/01 03:00:00;;;;;;;29.40;27.13;;;;;;;;;;4977826;28;20437;-91
2021/07/01 03:02:28;;;;;;;28.20;25.50;;;;;;;;;;4978000;28;20428;-90
2021/07/01 03:04:56;;;;;;;27.73;25.17;;;;;;;;;;4977441;28;20472;-91
2021/07/01 03:07:25;;;;;;;29.30;26.80;;;;;;;;;;4977940;28;20437;-91
2021/07/01 03:09:52;;;;;;;29.63;26.77;;;;;;;;;;4977630;28;20904;-90
2021/07/01 03:12:20;;;;;;;26.60;24.30;;;;;;;;;;4977664;28;20442;-90
2021/07/01 03:14:47;;;;;;;27.73;25.50;;;;;;;;;;4977517;28;20412;-91
2021/07/01 03:17:15;;;;;;;28.57;25.67;;;;;;;;;;4977792;28;20419;-91
2021/07/01 03:19:42;;;;;;;27.07;25.00;;;;;;;;;;4977773;28;20413;-91
2021/07/01 03:22:09;;;;;;;28.13;25.50;;;;;;;;;;4976884;28;20446;-90
2021/07/01 03:24:38;;;;;;;28.63;25.60;;;;;;;;;;4977859;28;20464;-90
2021/07/01 03:27:06;;;;;;;27.57;25.17;;;;;;;;;;4977469;28;20458;-90
2021/07/01 03:29:34;;;;;;;29.87;27.03;;;;;;;;;;4977474;28;20446;-93
2021/07/01 03:32:01;;;;;;;30.00;27.47;;;;;;;;;;4977204;28;20417;-88
2021/07/01 03:34:29;;;;;;;29.90;27.60;;;;;;;;;;4977434;28;20453;-88
2021/07/01 03:36:56;;;;;;;28.63;25.93;;;;;;;;;;4977780;28;20454;-86
2021/07/01 03:39:23;;;;;;;30.13;27.53;;;;;;;;;;4977488;28;20520;-89
2021/07/01 03:41:52;;;;;;;31.33;28.17;;;;;;;;;;4977292;28;20797;-90
2021/07/01 03:44:20;;;;;;;30.20;27.23;;;;;;;;;;4976910;28;20482;-86
2021/07/01 03:46:47;;;;;;;28.40;25.80;;;;;;;;;;4976489;28;20452;-86
2021/07/01 03:49:15;;;;;;;28.97;26.47;;;;;;;;;;4977964;28;20418;-85
2021/07/01 03:51:43;;;;;;;29.73;26.90;;;;;;;;;;4976953;28;20499;-86
2021/07/01 03:54:10;;;;;;;29.70;26.57;;;;;;;;;;4977772;28;20428;-85
2021/07/01 03:56:44;;;;;;;26.00;24.00;;;;;;;;;;4976647;28;20467;-87
2021/07/01 03:59:13;;;;;;;25.50;23.60;;;;;;;;;;4960113;28;20454;-88
2021/07/01 04:01:41;;;;;;;27.97;25.53;;;;;;;;;;4976588;28;20900;-87
2021/07/01 04:04:08;;;;;;;27.20;25.03;;;;;;;;;;4976507;28;20471;-89
2021/07/01 04:06:36;;;;;;;25.43;23.50;;;;;;;;;;4976967;28;20417;-88
2021/07/01 04:09:05;;;;;;;26.07;23.70;;;;;;;;;;4976749;28;20996;-88
2021/07/01 04:11:32;;;;;;;25.83;22.37;;;;;;;;;;4976352;28;20418;-89
2021/07/01 04:14:01;;;;;;;25.53;23.17;;;;;;;;;;4976635;28;20450;-89
2021/07/01 04:16:30;;;;;;;24.60;22.73;;;;;;;;;;4976532;28;20432;-87
2021/07/01 04:18:57;;;;;;;24.70;22.67;;;;;;;;;;4976700;28;20442;-88
2021/07/01 04:21:27;;;;;;;24.10;22.40;;;;;;;;;;4976371;28;20445;-86
2021/07/01 04:23:55;;;;;;;26.03;23.70;;;;;;;;;;4976865;28;20458;-85
2021/07/01 04:26:22;;;;;;;24.10;22.07;;;;;;;;;;4976385;28;20751;-88
2021/07/01 04:28:51;;;;;;;23.30;21.67;;;;;;;;;;4977250;28;20416;-85
2021/07/01 04:31:18;;;;;;;25.87;23.50;;;;;;;;;;4976758;28;20533;-83
2021/07/01 04:33:47;;;;;;;24.00;22.30;;;;;;;;;;4975173;28;20538;-86
2021/07/01 04:36:15;;;;;;;24.40;22.40;;;;;;;;;;4975917;28;20417;-86
2021/07/01 04:38:42;;;;;;;24.20;22.30;;;;;;;;;;4976046;28;20429;-86
2021/07/01 04:41:09;;;;;;;27.03;24.77;;;;;;;;;;4975859;28;20458;-87
2021/07/01 04:43:37;;;;;;;26.97;24.87;;;;;;;;;;4976124;28;20406;-87
2021/07/01 04:46:04;;;;;;;24.77;22.97;;;;;;;;;;4976716;28;20476;-91
2021/07/01 04:48:32;;;;;;;25.10;23.10;;;;;;;;;;4977176;28;20465;-91
2021/07/01 04:51:00;;;;;;;27.53;25.20;;;;;;;;;;4977376;28;20413;-90
2021/07/01 04:53:28;;;;;;;26.03;24.03;;;;;;;;;;4977039;28;20435;-94
2021/07/01 04:55:55;;;;;;;25.23;23.33;;;;;;;;;;4975907;28;20461;-83
2021/07/01 04:58:22;;;;;;;26.17;23.87;;;;;;;;;;4975252;28;20896;-83
2021/07/01 05:00:50;;;;;;;26.33;24.53;;;;;;;;;;4975183;28;20910;-84
2021/07/01 05:03:17;;;;;;;27.63;25.50;;;;;;;;;;4975230;28;20424;-84
2021/07/01 05:05:45;;;;;;;28.83;26.33;;;;;;;;;;4974890;28;20483;-83
2021/07/01 05:08:14;;;;;;;28.40;26.03;;;;;;;;;;4975403;28;20525;-83
2021/07/01 05:10:41;;;;;;;29.80;27.30;;;;;;;;;;4974981;28;20416;-83
2021/07/01 05:13:08;;;;;;;27.70;25.67;;;;;;;;;;4974783;28;20413;-83
2021/07/01 05:15:36;;;;;;;30.60;27.93;;;;;;;;;;4975200;28;20410;-83
2021/07/01 05:18:03;;;;;;;28.60;26.40;;;;;;;;;;4958219;28;20441;-86
2021/07/01 05:20:31;;;;;;;32.10;29.43;;;;;;;;;;4975344;28;20789;-84
2021/07/01 05:22:58;;;;;;;29.73;27.43;;;;;;;;;;4975400;28;20409;-85
2021/07/01 05:25:27;;;;;;;31.93;29.20;;;;;;;;;;4974838;28;20796;-83
2021/07/01 05:27:55;;;;;;;26.33;24.20;;;;;;;;;;4975167;28;20412;-83
2021/07/01 05:30:22;;;;;;;29.23;26.97;;;;;;;;;;4974874;28;20526;-83
2021/07/01 05:32:49;;;;;;;32.43;29.10;;;;;;;;;;4974785;28;20425;-83
2021/07/01 05:35:17;;;;;;;27.93;25.33;;;;;;;;;;4974771;28;20450;-83
2021/07/01 05:37:44;;;;;;;30.07;27.50;;;;;;;;;;4974853;28;21010;-85
2021/07/01 05:40:15;;;;;;;31.40;28.47;;;;;;;;;;4974967;28;20456;-85
2021/07/01 05:42:44;;;;;;;30.57;27.83;;;;;;;;;;4974944;28;20454;-86
2021/07/01 05:45:12;;;;;;;30.47;27.87;;;;;;;;;;4975569;28;20455;-83
2021/07/01 05:47:40;;;;;;;32.40;29.10;;;;;;;;;;4978620;28;20457;-83
2021/07/01 05:50:09;;;;;;;31.80;27.53;;;;;;;;;;4978998;28;20517;-85
2021/07/01 05:52:37;;;;;;;35.90;28.63;;;;;;;;;;4962049;28;20481;-85
2021/07/01 05:55:05;;;;;;;30.03;27.03;;;;;;;;;;4979553;28;20452;-86
2021/07/01 05:57:33;;;;;;;30.23;27.77;;;;;;;;;;4978758;28;20433;-83
2021/07/01 06:00:01;;;;;;;32.57;29.13;;;;;;;;;;4978236;28;20421;-82
2021/07/01 06:02:29;;;;;;;32.10;29.30;;;;;;;;;;4978711;28;20477;-85
2021/07/01 06:04:56;;;;;;;32.00;28.60;;;;;;;;;;4977277;28;20498;-86
2021/07/01 06:07:25;;;;;;;30.83;28.33;;;;;;;;;;4978931;28;20421;-86
2021/07/01 06:09:54;;;;;;;33.20;30.13;;;;;;;;;;4978696;28;20504;-83
2021/07/01 06:12:23;;;;;;;33.43;30.07;;;;;;;;;;4978751;28;20451;-83
2021/07/01 06:14:56;;;;;;;31.60;28.47;;;;;;;;;;4978079;28;20802;-83
2021/07/01 06:17:27;;;;;;;30.17;27.33;;;;;;;;;;4978338;28;20442;-87
2021/07/01 06:19:55;;;;;;;31.10;28.40;;;;;;;;;;4978479;28;20437;-87
2021/07/01 06:22:22;;;;;;;32.07;28.77;;;;;;;;;;4978625;28;20435;-83
2021/07/01 06:24:54;;;;;;;31.80;28.60;;;;;;;;;;4977834;28;20485;-82
2021/07/01 06:27:27;;;;;;;30.27;27.67;;;;;;;;;;4978100;28;20421;-82
2021/07/01 06:29:55;;;;;;;28.27;26.27;;;;;;;;;;4978241;28;20474;-85
2021/07/01 06:32:23;;;;;;;27.67;25.57;;;;;;;;;;4978518;28;20446;-85
2021/07/01 06:34:52;;;;;;;29.10;26.67;;;;;;;;;;4978735;28;20433;-85
2021/07/01 06:37:19;;;;;;;29.70;27.20;;;;;;;;;;4978273;28;20442;-82
2021/07/01 06:39:49;;;;;;;27.90;25.60;;;;;;;;;;4977540;28;20417;-82
2021/07/01 06:42:18;;;;;;;28.27;25.90;;;;;;;;;;4978045;28;20443;-85
2021/07/01 06:44:46;;;;;;;30.33;27.70;;;;;;;;;;4977794;28;20508;-86
2021/07/01 06:47:13;;;;;;;28.10;25.77;;;;;;;;;;4977904;28;20490;-86
2021/07/01 06:49:41;;;;;;;28.73;26.33;;;;;;;;;;4977601;28;20919;-81
2021/07/01 06:52:14;;;;;;;31.90;29.20;;;;;;;;;;4977939;28;20413;-85
2021/07/01 06:54:41;;;;;;;29.43;27.10;;;;;;;;;;4977795;28;20424;-79
2021/07/01 06:57:09;;;;;;;29.30;26.90;;;;;;;;;;4976665;28;20410;-90
2021/07/01 06:59:37;;;;;;;30.07;27.50;;;;;;;;;;4977482;28;20504;-80
2021/07/01 07:02:05;;;;;;;28.53;26.30;;;;;;;;;;4976835;28;20921;-80
2021/07/01 07:04:34;;;;;;;26.50;24.47;;;;;;;;;;4976922;28;20821;-78
2021/07/01 07:07:04;;;;;;;29.73;27.03;;;;;;;;;;4977181;28;20464;-82
2021/07/01 07:09:33;;;;;;;32.10;29.20;;;;;;;;;;4977098;28;20928;-81
2021/07/01 07:12:01;;;;;;;31.17;28.27;;;;;;;;;;4976975;28;20417;-82
2021/07/01 07:14:28;;;;;;;28.57;26.50;;;;;;;;;;4975675;28;20420;-82
2021/07/01 07:16:58;;;;;;;29.93;27.63;;;;;;;;;;4977044;28;20451;-81
2021/07/01 07:19:28;;;;;;;29.27;26.40;;;;;;;;;;4976824;28;20805;-82
2021/07/01 07:21:57;;;;;;;29.50;27.17;;;;;;;;;;4977081;28;20449;-82
2021/07/01 07:24:29;;;;;;;29.70;27.40;;;;;;;;;;4977840;28;20788;-82
2021/07/01 07:26:59;;;;;;;33.03;30.10;;;;;;;;;;4976636;28;20465;-81
2021/07/01 07:29:31;;;;;;;31.47;29.13;;;;;;;;;;4976805;28;20448;-81
2021/07/01 07:32:00;;;;;;;31.67;29.37;;;;;;;;;;4976649;28;20541;-82
2021/07/01 07:34:27;;;;;;;32.90;29.97;;;;;;;;;;4976499;28;20442;-82
2021/07/01 07:36:54;;;;;;;29.27;26.67;;;;;;;;;;4976688;28;20435;-82
2021/07/01 07:39:25;;;;;;;29.17;26.97;;;;;;;;;;4976715;28;20449;-82
2021/07/01 07:41:52;;;;;;;28.27;25.97;;;;;;;;;;4976627;28;20438;-82
2021/07/01 07:44:21;;;;;;;28.37;26.47;;;;;;;;;;4976968;28;20533;-81
2021/07/01 07:46:50;;;;;;;29.63;27.23;;;;;;;;;;4976081;28;20484;-81
2021/07/01 07:49:19;;;;;;;28.90;26.57;;;;;;;;;;4976277;28;20457;-81
2021/07/01 07:51:50;;;;;;;27.30;25.40;;;;;;;;;;4976524;28;20473;-86
2021/07/01 07:54:19;;;;;;;28.47;26.23;;;;;;;;;;4976409;28;20540;-81
2021/07/01 07:56:49;;;;;;;28.03;25.97;;;;;;;;;;4976207;28;20417;-87
2021/07/01 07:59:20;;;;;;;27.57;25.57;;;;;;;;;;4976398;28;20413;-82
2021/07/01 08:01:50;;;;;;;29.73;27.47;;;;;;;;;;4976080;28;20443;-83
2021/07/01 08:04:19;;;;;;;27.87;25.67;;;;;;;;;;4974827;28;20449;-81
2021/07/01 08:06:46;;;;;;;28.60;26.43;;;;;;;;;;4975909;28;20498;-82
2021/07/01 08:09:14;;;;;;;27.93;26.13;;;;;;;;;;4975855;28;20452;-82
2021/07/01 08:11:43;;;;;;;30.33;27.90;;;;;;;;;;4976125;28;20436;-82
2021/07/01 08:14:14;;;;;;;31.27;28.97;;;;;;;;;;4975777;28;20772;-82
2021/07/01 08:16:41;;;;;;;28.87;26.77;;;;;;;;;;4975757;28;20484;-82
2021/07/01 08:19:10;;;;;;;29.10;26.57;;;;;;;;;;4975734;28;20444;-82
2021/07/01 08:21:38;;;;;;;27.20;25.20;;;;;;;;;;4975982;28;20442;-82
2021/07/01 08:24:06;;;;;;;24.80;23.23;;;;;;;;;;4975881;28;20438;-81
2021/07/01 08:26:33;;;;;;;26.50;24.60;;;;;;;;;;4975497;28;20460;-82
2021/07/01 08:29:04;;;;;;;26.30;24.50;;;;;;;;;;4975493;28;20442;-82
2021/07/01 08:31:33;;;;;;;26.03;24.37;;;;;;;;;;4975823;28;20765;-82
2021/07/01 08:34:05;;;;;;;27.60;25.50;;;;;;;;;;4975825;28;20425;-82
2021/07/01 08:36:35;;;;;;;24.80;23.00;;;;;;;;;;4975873;28;20533;-82
2021/07/01 08:39:03;;;;;;;23.70;22.20;;;;;;;;;;4975538;28;20428;-87
2021/07/01 08:41:32;;;;;;;25.77;23.77;;;;;;;;;;4958932;28;20429;-84
2021/07/01 08:44:01;;;;;;;27.03;25.23;;;;;;;;;;4976065;28;20418;-82
2021/07/01 08:46:30;;;;;;;23.20;21.80;;;;;;;;;;4976196;28;20480;-92
2021/07/01 08:49:02;;;;;;;25.90;23.87;;;;;;;;;;4942234;28;20444;-80
2021/07/01 08:51:31;;;;;;;26.73;24.83;;;;;;;;;;4975667;28;20409;-81
2021/07/01 08:54:14;;;;;;;26.30;24.50;;;;;;;;;;4957717;28;20450;-81
2021/07/01 08:56:42;;;;;;;25.97;24.20;;;;;;;;;;4976048;28;20449;-86
2021/07/01 08:59:10;;;;;;;24.00;22.40;;;;;;;;;;4976148;28;20457;-81
2021/07/01 09:01:38;;;;;;;26.93;24.93;;;;;;;;;;4975170;28;20867;-79
2021/07/01 09:04:09;;;;;;;23.93;22.23;;;;;;;;;;4974860;28;20932;-83
2021/07/01 09:06:38;;;;;;;24.93;23.20;;;;;;;;;;4958950;28;20580;-92
2021/07/01 09:09:06;;;;;;;26.03;23.93;;;;;;;;;;4975798;28;20454;-90
2021/07/01 09:11:38;;;;;;;25.23;23.63;;;;;;;;;;4987294;28;20799;-91
2021/07/01 09:14:06;;;;;;;26.17;24.17;;;;;;;;;;4995003;28;20433;-90
2021/07/01 09:16:34;;;;;;;25.10;23.23;;;;;;;;;;4995088;28;20882;-90
2021/07/01 09:19:02;;;;;;;26.30;24.40;;;;;;;;;;4994568;28;20416;-90
2021/07/01 09:21:30;;;;;;;28.43;26.33;;;;;;;;;;4977141;28;20449;-92
2021/07/01 09:23:59;;;;;;;27.30;25.30;;;;;;;;;;4977844;28;20932;-92
2021/07/01 09:26:28;;;;;;;27.20;25.20;;;;;;;;;;4994574;28;20500;-92
2021/07/01 09:28:58;;;;;;;24.17;22.37;;;;;;;;;;4995767;28;20457;-90
2021/07/01 09:31:27;;;;;;;24.83;23.43;;;;;;;;;;4995354;28;20927;-92
2021/07/01 09:33:54;;;;;;;22.47;21.17;;;;;;;;;;4995382;28;20999;-91
2021/07/01 09:36:24;;;;;;;24.33;22.63;;;;;;;;;;4995901;28;20416;-91
2021/07/01 09:38:52;;;;;;;25.20;23.40;;;;;;;;;;4994848;28;20544;-91
2021/07/01 09:41:22;;;;;;;24.87;23.27;;;;;;;;;;4994987;28;20442;-91
2021/07/01 09:43:50;;;;;;;23.83;22.33;;;;;;;;;;4994695;28;20528;-90
2021/07/01 09:46:23;;;;;;;25.60;23.60;;;;;;;;;;4995024;28;20503;-91
2021/07/01 09:48:51;;;;;;;25.50;23.90;;;;;;;;;;4995768;28;20456;-92
2021/07/01 09:51:19;;;;;;;23.40;22.20;;;;;;;;;;4978139;28;20420;-93
2021/07/01 09:53:49;;;;;;;26.50;24.80;;;;;;;;;;4996280;28;20441;-86
2021/07/01 09:56:18;;;;;;;28.37;26.50;;;;;;;;;;4996842;28;20445;-91
2021/07/01 09:58:48;;;;;;;29.97;28.07;;;;;;;;;;4994636;28;20436;-93
2021/07/01 10:01:25;;;;;;;31.23;29.23;;;;;;;;;;4994806;28;20413;-92
2021/07/01 10:03:56;;;;;;;33.03;30.83;;;;;;;;;;4994135;28;20431;-96
2021/07/01 10:06:24;;;;;;;27.73;26.13;;;;;;;;;;4993862;28;20988;-89
2021/07/01 10:08:51;;;;;;;33.57;31.20;;;;;;;;;;4994555;28;20432;-90
2021/07/01 10:11:31;;;;;;;28.83;27.23;;;;;;;;;;4977532;28;20406;-91
2021/07/01 10:13:59;;;;;;;26.97;25.43;;;;;;;;;;4977289;28;20877;-91
2021/07/01 10:16:30;;;;;;;33.27;31.27;;;;;;;;;;4977309;28;20830;-92
2021/07/01 10:18:58;;;;;;;33.07;31.27;;;;;;;;;;4994793;28;20783;-91
2021/07/01 10:21:29;;;;;;;33.73;31.63;;;;;;;;;;4994474;28;20432;-89
2021/07/01 10:24:08;;;;;;;32.07;30.10;;;;;;;;;;4994478;28;20424;-91
2021/07/01 10:26:39;;;;;;;33.63;31.60;;;;;;;;;;4994442;28;20451;-90
2021/07/01 10:29:07;;;;;;;31.70;29.87;;;;;;;;;;4994027;28;20425;-85
2021/07/01 10:31:51;;;;;;;32.10;30.20;;;;;;;;;;4993823;28;20906;-84
2021/07/01 10:34:20;;;;;;;35.67;33.50;;;;;;;;;;4996632;28;20490;-85
2021/07/01 10:36:48;;;;;;;33.10;31.20;;;;;;;;;;4997667;28;20880;-84
2021/07/01 10:39:16;;;;;;;32.93;31.17;;;;;;;;;;4997353;28;20488;-84
2021/07/01 10:41:43;;;;;;;33.73;31.73;;;;;;;;;;4997581;28;20420;-85
2021/07/01 10:44:22;;;;;;;33.63;31.93;;;;;;;;;;4997215;28;20506;-85
2021/07/01 10:46:50;;;;;;;33.50;31.67;;;;;;;;;;4997092;28;21021;-84
2021/07/01 10:49:18;;;;;;;34.67;32.50;;;;;;;;;;4997139;28;20914;-84
2021/07/01 10:51:58;;;;;;;37.37;35.50;;;;;;;;;;4979956;28;20424;-84
2021/07/01 10:54:25;;;;;;;39.87;37.83;;;;;;;;;;4997357;28;20420;-84
2021/07/01 10:56:55;;;;;;;43.43;40.80;;;;;;;;;;4997307;28;20419;-84
2021/07/01 10:59:22;;;;;;;44.20;41.90;;;;;;;;;;4997323;28;20432;-85
2021/07/01 11:01:54;;;;;;;46.53;44.13;;;;;;;;;;4997336;28;20792;-88
2021/07/01 11:04:22;;;;;;;48.40;44.80;;;;;;;;;;4996147;28;20467;-84
2021/07/01 11:07:00;;;;;;;43.73;41.27;;;;;;;;;;4996878;28;20484;-84
2021/07/01 11:09:27;;;;;;;40.13;37.73;;;;;;;;;;4997068;28;20425;-84
2021/07/01 11:12:01;;;;;;;40.70;38.20;;;;;;;;;;4996788;28;20986;-84
2021/07/01 11:14:41;;;;;;;39.23;36.60;;;;;;;;;;4996954;28;20437;-84
2021/07/01 11:17:09;;;;;;;40.90;38.30;;;;;;;;;;4979610;28;20448;-84
2021/07/01 11:19:40;;;;;;;35.97;33.87;;;;;;;;;;4996610;28;20437;-84
2021/07/01 11:22:09;;;;;;;36.03;33.43;;;;;;;;;;4996545;28;20442;-84
2021/07/01 11:24:40;;;;;;;34.13;31.77;;;;;;;;;;4996570;28;20437;-84
2021/07/01 11:27:07;;;;;;;32.10;30.13;;;;;;;;;;4996307;28;20481;-85
2021/07/01 11:29:36;;;;;;;31.37;29.37;;;;;;;;;;4996664;28;20417;-84
2021/07/01 11:32:04;;;;;;;31.33;28.83;;;;;;;;;;4979443;28;20457;-84
2021/07/01 11:34:41;;;;;;;31.30;29.50;;;;;;;;;;4996532;28;20426;-85
2021/07/01 11:37:11;;;;;;;28.00;26.30;;;;;;;;;;4996629;28;20488;-88
2021/07/01 11:39:38;;;;;;;30.77;28.87;;;;;;;;;;4996423;28;20433;-84
2021/07/01 11:42:06;;;;;;;28.00;26.30;;;;;;;;;;4996234;28;20416;-85
2021/07/01 11:44:34;;;;;;;28.33;26.63;;;;;;;;;;4996171;28;20433;-84
2021/07/01 11:47:03;;;;;;;29.77;27.73;;;;;;;;;;4995988;28;20493;-87
2021/07/01 11:49:31;;;;;;;27.93;26.33;;;;;;;;;;4996339;28;20428;-85
2021/07/01 11:51:59;;;;;;;27.37;25.57;;;;;;;;;;4996263;28;20412;-84
2021/07/01 11:54:28;;;;;;;26.50;24.90;;;;;;;;;;4996169;28;20425;-84
2021/07/01 11:56:58;;;;;;;29.40;27.50;;;;;;;;;;4995965;28;20511;-84
2021/07/01 11:59:27;;;;;;;28.27;26.20;;;;;;;;;;4995781;28;20468;-84
2021/07/01 12:01:54;;;;;;;30.20;27.73;;;;;;;;;;4996098;28;20445;-86
2021/07/01 12:04:25;;;;;;;28.20;25.83;;;;;;;;;;4995728;28;20998;-83
2021/07/01 12:06:56;;;;;;;34.17;30.67;;;;;;;;;;4996233;28;20444;-84
2021/07/01 12:09:23;;;;;;;31.13;28.00;;;;;;;;;;4996697;28;20469;-89
2021/07/01 12:12:08;;;;;;;28.83;26.10;;;;;;;;;;4996732;28;20432;-91
2021/07/01 12:14:38;;;;;;;28.27;26.00;;;;;;;;;;4983449;28;20468;-87
2021/07/01 12:17:05;;;;;;;30.47;27.73;;;;;;;;;;4996831;28;20440;-87
2021/07/01 12:19:51;;;;;;;29.43;27.17;;;;;;;;;;4998181;28;20464;-87
2021/07/01 12:22:33;;;;;;;30.63;27.70;;;;;;;;;;4997301;28;20447;-86
2021/07/01 12:25:00;;;;;;;27.00;25.07;;;;;;;;;;4996531;28;20930;-86
2021/07/01 12:27:29;;;;;;;28.00;25.87;;;;;;;;;;4997728;28;20476;-85
2021/07/01 12:29:58;;;;;;;26.20;24.47;;;;;;;;;;4995617;28;20883;-85
2021/07/01 12:32:26;;;;;;;27.67;25.97;;;;;;;;;;4994649;28;20424;-81
2021/07/01 12:34:54;;;;;;;27.93;26.23;;;;;;;;;;4995584;28;20450;-82
2021/07/01 12:37:21;;;;;;;27.07;25.37;;;;;;;;;;4995029;28;20448;-84
2021/07/01 12:39:49;;;;;;;27.93;26.33;;;;;;;;;;4978107;28;20427;-81
2021/07/01 12:42:23;;;;;;;27.37;25.87;;;;;;;;;;4995050;28;20431;-89
2021/07/01 12:44:52;;;;;;;28.27;26.67;;;;;;;;;;4995354;28;20472;-89
2021/07/01 12:47:31;;;;;;;29.07;27.47;;;;;;;;;;4995412;28;20552;-84
2021/07/01 12:50:00;;;;;;;28.20;26.60;;;;;;;;;;4994961;28;20445;-86
2021/07/01 12:52:35;;;;;;;30.17;28.47;;;;;;;;;;4995102;28;20466;-87
2021/07/01 12:55:03;;;;;;;30.23;28.60;;;;;;;;;;4994176;28;20465;-86
2021/07/01 12:57:31;;;;;;;29.10;27.30;;;;;;;;;;4994894;28;20442;-83
2021/07/01 12:59:59;;;;;;;30.90;28.90;;;;;;;;;;4995640;28;20419;-87
2021/07/01 13:02:29;;;;;;;29.27;27.57;;;;;;;;;;4996472;28;20428;-86
2021/07/01 13:04:58;;;;;;;30.83;28.93;;;;;;;;;;4996287;28;20461;-86
2021/07/01 13:07:28;;;;;;;29.13;27.30;;;;;;;;;;4995373;28;20506;-86
2021/07/01 13:09:58;;;;;;;29.57;27.87;;;;;;;;;;4994651;28;20508;-88
2021/07/01 13:12:31;;;;;;;30.90;29.30;;;;;;;;;;4994720;28;20444;-86
2021/07/01 13:14:58;;;;;;;32.07;30.33;;;;;;;;;;4995349;28;20450;-89
2021/07/01 13:17:26;;;;;;;33.70;31.80;;;;;;;;;;4995127;28;20430;-88
2021/07/01 13:19:56;;;;;;;36.90;34.67;;;;;;;;;;4994082;28;20508;-92
2021/07/01 13:22:25;;;;;;;35.43;33.33;;;;;;;;;;4994778;28;20404;-88
2021/07/01 13:24:54;;;;;;;36.70;34.53;;;;;;;;;;4996030;28;20480;-87
2021/07/01 13:27:35;;;;;;;37.77;35.67;;;;;;;;;;4994484;28;20483;-88
2021/07/01 13:30:04;;;;;;;35.73;33.47;;;;;;;;;;4994986;28;20428;-85
2021/07/01 13:32:31;;;;;;;37.77;35.47;;;;;;;;;;4995644;28;20771;-83
2021/07/01 13:35:00;;;;;;;37.70;35.40;;;;;;;;;;4994481;28;20480;-84
2021/07/01 13:37:28;;;;;;;38.67;36.37;;;;;;;;;;4994964;28;20408;-85
2021/07/01 13:39:57;;;;;;;38.73;36.13;;;;;;;;;;4994579;28;21011;-85
2021/07/01 13:42:28;;;;;;;42.07;39.50;;;;;;;;;;4977346;28;20777;-91
2021/07/01 13:45:02;;;;;;;38.60;36.33;;;;;;;;;;4994827;28;20496;-86
2021/07/01 13:47:31;;;;;;;38.67;36.37;;;;;;;;;;4994608;28;20538;-86
2021/07/01 13:50:00;;;;;;;38.73;36.53;;;;;;;;;;4994689;28;20470;-86
2021/07/01 13:52:27;;;;;;;37.30;35.10;;;;;;;;;;4994576;28;20453;-88
2021/07/01 13:54:55;;;;;;;39.33;37.10;;;;;;;;;;4994649;28;20904;-87
2021/07/01 13:57:26;;;;;;;40.63;38.23;;;;;;;;;;4994816;28;20496;-87
2021/07/01 13:59:59;;;;;;;39.90;37.50;;;;;;;;;;4994323;28;20409;-87
2021/07/01 14:02:27;;;;;;;41.50;38.70;;;;;;;;;;4994570;28;20416;-85
2021/07/01 14:04:55;;;;;;;39.03;36.70;;;;;;;;;;4993982;28;20463;-86
2021/07/01 14:07:33;;;;;;;41.00;38.60;;;;;;;;;;4997683;28;20896;-86
2021/07/01 14:10:11;;;;;;;41.10;38.60;;;;;;;;;;4998711;28;20432;-87
2021/07/01 14:12:39;;;;;;;39.87;37.67;;;;;;;;;;4999124;28;20408;-84
2021/07/01 14:15:07;;;;;;;40.47;37.90;;;;;;;;;;4997692;28;20408;-82
2021/07/01 14:17:35;;;;;;;40.90;38.60;;;;;;;;;;4997643;28;20409;-84
2021/07/01 14:20:03;;;;;;;39.93;37.53;;;;;;;;;;4997457;28;20448;-78
2021/07/01 14:22:36;;;;;;;40.10;37.87;;;;;;;;;;4997223;28;20416;-79
2021/07/01 14:25:30;;;;;;;41.70;39.30;;;;;;;;;;4997281;28;20914;-82
2021/07/01 14:28:18;;;;;;;43.33;40.83;;;;;;;;;;4918669;29;20488;-83